createdAt,value
2019-04-01T00:01:58.640Z,101932.67
2019-04-01T00:04:34.163Z,101933.10
2019-04-01T00:07:07.986Z,101925.37
2019-04-01T00:09:43.349Z,101929.63
2019-04-01T00:12:16.980Z,101930.91
2019-04-01T00:14:50.619Z,101926.21
2019-04-01T00:17:24.374Z,101925.34
2019-04-01T00:19:57.923Z,101930.41
2019-04-01T00:22:32.094Z,101929.08
2019-04-01T00:25:07.900Z,101929.91
2019-04-01T00:27:43.344Z,101932.86
2019-04-01T00:30:16.921Z,101934.56
2019-04-01T00:32:50.500Z,101937.97
2019-04-01T00:35:24.335Z,101931.95
2019-04-01T00:37:57.963Z,101934.07
2019-04-01T00:40:31.669Z,101937.96
2019-04-01T00:43:30.651Z,101931.03
2019-04-01T00:46:04.659Z,101933.98
2019-04-01T00:48:38.248Z,101934.37
2019-04-01T00:51:11.831Z,101934.36
2019-04-01T00:53:45.443Z,101930.50
2019-04-01T00:56:19.062Z,101935.53
2019-04-01T00:58:54.724Z,101935.08
2019-04-01T01:01:31.352Z,101933.78
2019-04-01T01:04:04.991Z,101928.69
2019-04-01T01:06:38.840Z,101936.34
2019-04-01T01:09:12.505Z,101938.48
2019-04-01T01:11:46.046Z,101935.44
2019-04-01T01:14:19.642Z,101935.34
2019-04-01T01:16:54.255Z,101930.61
2019-04-01T01:19:28.268Z,101930.95
2019-04-01T01:22:01.840Z,101927.91
2019-04-01T01:24:36.488Z,101922.70
2019-04-01T01:27:10.219Z,101926.53
2019-04-01T01:29:46.460Z,101934.94
2019-04-01T01:32:20.101Z,101936.68
2019-04-01T01:34:53.747Z,101940.50
2019-04-01T01:37:31.174Z,101929.92
2019-04-01T01:40:07.215Z,101926.97
2019-04-01T01:42:41.068Z,101927.45
2019-04-01T01:45:14.948Z,101931.73
2019-04-01T01:47:50.070Z,101930.11
2019-04-01T01:50:24.703Z,101928.47
2019-04-01T01:52:58.407Z,101924.30
2019-04-01T01:55:33.475Z,101929.91
2019-04-01T01:58:07.662Z,101921.08
2019-04-01T02:00:42.960Z,101923.96
2019-04-01T02:03:16.813Z,101922.38
2019-04-01T02:05:50.372Z,101923.95
2019-04-01T02:08:24.365Z,101915.07
2019-04-01T02:10:58.036Z,101912.95
2019-04-01T02:13:34.138Z,101911.23
2019-04-01T02:16:07.793Z,101914.17
2019-04-01T02:18:41.404Z,101916.79
2019-04-01T02:21:15.115Z,101914.16
2019-04-01T02:23:48.769Z,101914.14
2019-04-01T02:26:22.299Z,101915.45
2019-04-01T02:28:55.890Z,101909.42
2019-04-01T02:31:29.423Z,101923.84
2019-04-01T02:34:03.110Z,101920.79
2019-04-01T02:36:38.262Z,101918.66
2019-04-01T02:39:13.701Z,101918.48
2019-04-01T02:41:49.363Z,101921.87
2019-04-01T02:44:24.088Z,101918.44
2019-04-01T02:46:57.890Z,101915.95
2019-04-01T02:49:33.027Z,101913.73
2019-04-01T02:52:06.660Z,101918.41
2019-04-01T02:54:40.305Z,101918.31
2019-04-01T02:57:14.049Z,101921.27
2019-04-01T02:59:48.070Z,101919.55
2019-04-01T03:02:21.860Z,101920.38
2019-04-01T03:04:55.498Z,101922.42
2019-04-01T03:07:30.604Z,101916.27
2019-04-01T03:10:04.341Z,101913.68
2019-04-01T03:12:39.451Z,101912.26
2019-04-01T03:15:13.273Z,101913.30
2019-04-01T03:17:46.909Z,101907.58
2019-04-01T03:20:20.491Z,101915.23
2019-04-01T03:22:54.174Z,101911.35
2019-04-01T03:25:29.717Z,101912.64
2019-04-01T03:28:05.733Z,101914.42
2019-04-01T03:30:39.398Z,101912.59
2019-04-01T03:33:13.218Z,101914.34
2019-04-01T03:35:49.467Z,101913.12
2019-04-01T03:38:27.927Z,101919.63
2019-04-01T03:41:01.262Z,101920.81
2019-04-01T03:43:36.193Z,101919.48
2019-04-01T03:46:10.319Z,101910.38
2019-04-01T03:48:44.274Z,101912.14
2019-04-01T03:51:19.152Z,101914.25
2019-04-01T03:53:54.906Z,101913.86
2019-04-01T03:56:28.727Z,101917.30
2019-04-01T03:59:02.344Z,101912.11
2019-04-01T04:01:35.939Z,101916.04
2019-04-01T04:04:09.473Z,101904.47
2019-04-01T04:06:43.336Z,101913.00
2019-04-01T04:09:17.153Z,101911.25
2019-04-01T04:11:51.883Z,101910.41
2019-04-01T04:14:26.678Z,101905.75
2019-04-01T04:17:00.748Z,101908.48
2019-04-01T04:19:34.288Z,101916.52
2019-04-01T04:22:09.275Z,101910.58
2019-04-01T04:24:45.002Z,101916.97
2019-04-01T04:27:18.709Z,101914.89
2019-04-01T04:29:52.349Z,101914.38
2019-04-01T04:32:26.127Z,101911.77
2019-04-01T04:34:59.851Z,101918.31
2019-04-01T04:37:33.755Z,101907.38
2019-04-01T04:40:07.868Z,101906.22
2019-04-01T04:42:41.483Z,101912.92
2019-04-01T04:45:15.458Z,101912.95
2019-04-01T04:47:51.010Z,101910.86
2019-04-01T04:50:24.843Z,101911.39
2019-04-01T04:53:01.596Z,101911.92
2019-04-01T04:55:35.608Z,101912.69
2019-04-01T04:58:09.149Z,101912.69
2019-04-01T05:00:43.072Z,101917.39
2019-04-01T05:03:16.613Z,101912.78
2019-04-01T05:05:51.716Z,101907.69
2019-04-01T05:08:25.510Z,101907.39
2019-04-01T05:10:59.283Z,101905.61
2019-04-01T05:13:33.280Z,101912.05
2019-04-01T05:16:06.849Z,101915.52
2019-04-01T05:18:40.491Z,101918.91
2019-04-01T05:21:17.788Z,101924.58
2019-04-01T05:23:54.639Z,101926.83
2019-04-01T05:26:28.579Z,101928.14
2019-04-01T05:29:05.303Z,101936.61
2019-04-01T05:31:42.283Z,101933.80
2019-04-01T05:34:20.207Z,101924.88
2019-04-01T05:36:53.736Z,101925.94
2019-04-01T05:39:27.308Z,101923.31
2019-04-01T05:42:01.076Z,101928.69
2019-04-01T05:44:34.955Z,101932.69
2019-04-01T05:47:09.980Z,101933.84
2019-04-01T05:49:43.622Z,101928.05
2019-04-01T05:52:17.163Z,101928.08
2019-04-01T05:54:50.891Z,101926.52
2019-04-01T05:57:24.603Z,101933.81
2019-04-01T05:59:58.457Z,101938.83
2019-04-01T06:02:32.153Z,101939.03
2019-04-01T06:05:06.841Z,101936.09
2019-04-01T06:07:40.768Z,101940.30
2019-04-01T06:10:15.581Z,101936.48
2019-04-01T06:12:50.263Z,101939.92
2019-04-01T06:15:23.817Z,101939.23
2019-04-01T06:17:58.541Z,101937.20
2019-04-01T06:20:32.225Z,101941.50
2019-04-01T06:23:06.054Z,101935.13
2019-04-01T06:25:39.760Z,101934.07
2019-04-01T06:28:14.458Z,101931.23
2019-04-01T06:30:48.321Z,101940.78
2019-04-01T06:33:21.927Z,101937.08
2019-04-01T06:35:55.471Z,101933.02
2019-04-01T06:38:29.150Z,101933.38
2019-04-01T06:41:11.912Z,101937.34
2019-04-01T06:43:45.484Z,101936.91
2019-04-01T06:46:19.181Z,101933.48
2019-04-01T06:48:52.854Z,101937.64
2019-04-01T06:51:26.586Z,101926.69
2019-04-01T06:54:00.120Z,101930.27
2019-04-01T06:56:34.237Z,101936.13
2019-04-01T06:59:08.363Z,101924.34
2019-04-01T07:01:41.971Z,101926.13
2019-04-01T07:04:15.519Z,101925.47
2019-04-01T07:06:49.301Z,101921.73
2019-04-01T07:09:23.072Z,101925.16
2019-04-01T07:11:58.290Z,101933.87
2019-04-01T07:14:32.038Z,101925.16
2019-04-01T07:17:05.824Z,101932.88
2019-04-01T07:19:40.783Z,101932.31
2019-04-01T07:22:14.794Z,101935.63
2019-04-01T07:24:48.703Z,101934.63
2019-04-01T07:27:23.234Z,101930.50
2019-04-01T07:29:57.103Z,101942.77
2019-04-01T07:32:30.654Z,101943.20
2019-04-01T07:35:06.656Z,101941.51
2019-04-01T07:37:41.409Z,101937.36
2019-04-01T07:40:15.937Z,101935.30
2019-04-01T07:42:49.789Z,101932.48
2019-04-01T07:45:23.412Z,101937.53
2019-04-01T07:47:58.194Z,101933.05
2019-04-01T07:50:32.005Z,101951.33
2019-04-01T07:53:05.935Z,101949.55
2019-04-01T07:55:39.841Z,101938.86
2019-04-01T07:58:13.589Z,101944.88
2019-04-01T08:00:47.298Z,101934.09
2019-04-01T08:03:20.939Z,101944.48
2019-04-01T08:05:55.361Z,101944.81
2019-04-01T08:08:29.463Z,101938.13
2019-04-01T08:11:04.409Z,101938.15
2019-04-01T08:13:38.154Z,101932.38
2019-04-01T08:16:11.806Z,101925.02
2019-04-01T08:18:45.556Z,101931.44
2019-04-01T08:21:19.240Z,101932.14
2019-04-01T08:23:52.943Z,101929.97
2019-04-01T08:26:26.940Z,101940.17
2019-04-01T08:29:02.091Z,101928.87
2019-04-01T08:31:37.132Z,101930.67
2019-04-01T08:34:11.027Z,101930.38
2019-04-01T08:36:44.965Z,101916.86
2019-04-01T08:39:18.965Z,101915.73
2019-04-01T08:41:53.098Z,101930.88
2019-04-01T08:44:26.882Z,101929.17
2019-04-01T08:47:01.935Z,101925.08
2019-04-01T08:49:35.485Z,101915.88
2019-04-01T08:52:11.344Z,101920.44
2019-04-01T08:54:45.216Z,101922.29
2019-04-01T08:57:19.557Z,101917.79
2019-04-01T08:59:56.187Z,101925.95
2019-04-01T09:02:30.083Z,101912.92
2019-04-01T09:05:05.357Z,101915.35
2019-04-01T09:07:39.136Z,101909.57
2019-04-01T09:10:13.824Z,101902.25
2019-04-01T09:12:47.450Z,101893.77
2019-04-01T09:15:22.605Z,101901.73
2019-04-01T09:17:58.172Z,101904.18
2019-04-01T09:20:32.986Z,101905.59
2019-04-01T09:23:07.816Z,101893.22
2019-04-01T09:25:41.422Z,101890.22
2019-04-01T09:28:15.102Z,101894.44
2019-04-01T09:30:48.768Z,101906.19
2019-04-01T09:33:22.353Z,101894.28
2019-04-01T09:35:56.483Z,101891.63
2019-04-01T09:38:30.159Z,101878.84
2019-04-01T09:41:04.565Z,101886.77
2019-04-01T09:43:39.248Z,101885.22
2019-04-01T09:46:13.246Z,101875.91
2019-04-01T09:48:46.915Z,101870.63
2019-04-01T09:51:23.700Z,101853.09
2019-04-01T09:53:57.412Z,101866.20
2019-04-01T09:56:32.827Z,101866.00
2019-04-01T09:59:07.793Z,101869.80
2019-04-01T10:01:42.645Z,101865.48
2019-04-01T10:04:16.314Z,101872.20
2019-04-01T10:06:49.917Z,101861.19
2019-04-01T10:09:23.956Z,101861.50
2019-04-01T10:11:59.008Z,101858.27
2019-04-01T10:14:34.531Z,101842.33
2019-04-01T10:17:08.428Z,101845.14
2019-04-01T10:19:42.436Z,101849.91
2019-04-01T10:22:16.461Z,101838.08
2019-04-01T10:24:52.054Z,101830.98
2019-04-01T10:27:26.211Z,101839.12
2019-04-01T10:30:00.944Z,101824.70
2019-04-01T10:32:34.944Z,101827.86
2019-04-01T10:35:09.438Z,101824.41
2019-04-01T10:37:43.415Z,101816.27
2019-04-01T10:40:17.631Z,101817.00
2019-04-01T10:42:51.726Z,101825.28
2019-04-01T10:45:25.643Z,101812.28
2019-04-01T10:47:59.689Z,101803.87
2019-04-01T10:50:33.705Z,101800.59
2019-04-01T10:53:07.480Z,101807.90
2019-04-01T10:55:48.656Z,101796.41
2019-04-01T10:58:22.923Z,101787.26
2019-04-01T11:00:56.696Z,101795.66
2019-04-01T11:03:30.588Z,101796.50
2019-04-01T11:06:06.647Z,101788.14
2019-04-01T11:08:40.742Z,101777.62
2019-04-01T11:11:14.515Z,101775.28
2019-04-01T11:13:51.581Z,101781.55
2019-04-01T11:16:23.828Z,101772.93
2019-04-01T11:18:58.234Z,101778.75
2019-04-01T11:21:33.146Z,101773.87
2019-04-01T11:24:09.556Z,101798.84
2019-04-01T11:26:45.058Z,101768.43
2019-04-01T11:29:19.404Z,101766.11
2019-04-01T11:31:53.198Z,101749.38
2019-04-01T11:34:27.690Z,101751.13
2019-04-01T11:37:01.339Z,101751.94
2019-04-01T11:39:36.213Z,101746.84
2019-04-01T11:42:09.941Z,101741.13
2019-04-01T11:44:43.630Z,101751.38
2019-04-01T11:47:17.643Z,101738.41
2019-04-01T11:49:51.639Z,101740.62
2019-04-01T11:52:26.752Z,101730.54
2019-04-01T11:55:00.651Z,101721.47
2019-04-01T11:57:35.487Z,101721.92
2019-04-01T12:00:16.363Z,101722.77
2019-04-01T12:02:49.911Z,101713.02
2019-04-01T12:05:23.564Z,101710.34
2019-04-01T12:07:58.324Z,101707.22
2019-04-01T12:10:32.313Z,101698.72
2019-04-01T12:13:07.956Z,101692.47
2019-04-01T12:15:41.675Z,101697.52
2019-04-01T12:18:15.703Z,101686.53
2019-04-01T12:20:49.547Z,101678.34
2019-04-01T12:23:24.823Z,101682.58
2019-04-01T12:25:58.430Z,101678.64
2019-04-01T12:28:32.041Z,101677.64
2019-04-01T12:31:06.860Z,101666.23
2019-04-01T12:33:40.554Z,101661.06
2019-04-01T12:36:14.238Z,101655.98
2019-04-01T12:38:47.879Z,101659.20
2019-04-01T12:41:23.649Z,101649.48
2019-04-01T12:43:57.354Z,101647.94
2019-04-01T12:46:33.175Z,101649.86
2019-04-01T12:49:07.557Z,101650.95
2019-04-01T12:51:41.398Z,101642.28
2019-04-01T12:54:16.762Z,101627.94
2019-04-01T12:56:55.079Z,101627.58
2019-04-01T12:59:29.702Z,101616.72
2019-04-01T13:02:03.413Z,101623.73
2019-04-01T13:04:37.147Z,101617.10
2019-04-01T13:07:10.809Z,101604.43
2019-04-01T13:09:44.521Z,101609.66
2019-04-01T13:12:26.906Z,101598.56
2019-04-01T13:14:59.730Z,101585.91
2019-04-01T13:17:33.664Z,101581.53
2019-04-01T13:20:08.102Z,101576.73
2019-04-01T13:22:41.740Z,101570.94
2019-04-01T13:25:15.714Z,101563.28
2019-04-01T13:27:49.883Z,101565.97
2019-04-01T13:30:24.310Z,101557.88
2019-04-01T13:32:58.570Z,101561.89
2019-04-01T13:35:32.296Z,101552.33
2019-04-01T13:38:05.856Z,101551.59
2019-04-01T13:40:39.527Z,101550.83
2019-04-01T13:43:16.837Z,101539.27
2019-04-01T13:45:50.097Z,101544.98
2019-04-01T13:48:23.902Z,101533.98
2019-04-01T13:50:57.607Z,101540.50
2019-04-01T13:53:31.186Z,101524.95
2019-04-01T13:56:04.783Z,101515.69
2019-04-01T13:58:39.422Z,101515.83
2019-04-01T14:01:13.297Z,101515.37
2019-04-01T14:03:47.064Z,101515.56
2019-04-01T14:06:22.555Z,101500.55
2019-04-01T14:09:00.335Z,101492.55
2019-04-01T14:11:32.259Z,101493.41
2019-04-01T14:14:08.248Z,101491.96
2019-04-01T14:16:42.908Z,101480.33
2019-04-01T14:19:18.253Z,101487.35
2019-04-01T14:21:52.332Z,101488.07
2019-04-01T14:24:28.077Z,101479.16
2019-04-01T14:27:02.707Z,101472.26
2019-04-01T14:29:36.757Z,101473.83
2019-04-01T14:32:10.794Z,101470.47
2019-04-01T14:34:45.876Z,101456.44
2019-04-01T14:37:26.159Z,101447.25
2019-04-01T14:39:55.127Z,101447.94
2019-04-01T14:42:29.869Z,101443.71
2019-04-01T14:45:06.357Z,101441.30
2019-04-01T14:47:55.885Z,101451.13
2019-04-01T14:50:17.625Z,101424.91
2019-04-01T14:52:53.079Z,101426.87
2019-04-01T14:55:26.881Z,101419.61
2019-04-01T14:58:02.710Z,101413.42
2019-04-01T15:00:36.307Z,101405.64
2019-04-01T15:03:09.972Z,101410.47
2019-04-01T15:05:43.844Z,101406.11
2019-04-01T15:08:19.494Z,101412.38
2019-04-01T15:10:53.152Z,101393.95
2019-04-01T15:13:26.905Z,101402.52
2019-04-01T15:16:20.480Z,101392.41
2019-04-01T15:18:54.234Z,101389.05
2019-04-01T15:21:28.075Z,101388.91
2019-04-01T15:24:01.832Z,101382.92
2019-04-01T15:26:36.937Z,101386.67
2019-04-01T15:29:11.677Z,101374.33
2019-04-01T15:31:45.575Z,101373.48
2019-04-01T15:34:19.906Z,101369.06
2019-04-01T15:36:54.258Z,101357.17
2019-04-01T15:39:28.748Z,101351.66
2019-04-01T15:42:03.682Z,101357.22
2019-04-01T15:44:38.508Z,101341.13
2019-04-01T15:47:12.557Z,101341.13
2019-04-01T15:49:46.348Z,101336.22
2019-04-01T15:52:22.660Z,101333.31
2019-04-01T15:54:58.070Z,101339.63
2019-04-01T15:57:32.862Z,101329.63
2019-04-01T16:00:08.315Z,101330.47
2019-04-01T16:02:42.024Z,101323.14
2019-04-01T16:05:16.849Z,101317.62
2019-04-01T16:07:50.616Z,101310.15
2019-04-01T16:10:24.486Z,101309.41
2019-04-01T16:12:58.494Z,101315.98
2019-04-01T16:15:32.595Z,101304.02
2019-04-01T16:18:07.307Z,101310.93
2019-04-01T16:20:42.811Z,101301.16
2019-04-01T16:23:16.471Z,101296.16
2019-04-01T16:25:51.574Z,101295.59
2019-04-01T16:28:28.489Z,101287.73
2019-04-01T16:31:02.093Z,101292.52
2019-04-01T16:33:37.332Z,101287.14
2019-04-01T16:36:11.380Z,101284.87
2019-04-01T16:38:45.562Z,101287.67
2019-04-01T16:41:19.170Z,101304.33
2019-04-01T16:43:52.986Z,101288.95
2019-04-01T16:46:26.577Z,101284.13
2019-04-01T16:49:00.388Z,101288.78
2019-04-01T16:51:34.500Z,101282.13
2019-04-01T16:54:09.192Z,101290.75
2019-04-01T16:56:43.968Z,101288.84
2019-04-01T16:59:19.677Z,101287.28
2019-04-01T17:01:53.456Z,101292.00
2019-04-01T17:04:27.262Z,101289.00
2019-04-01T17:07:00.888Z,101285.51
2019-04-01T17:09:35.167Z,101279.51
2019-04-01T17:12:11.092Z,101282.20
2019-04-01T17:14:44.910Z,101279.06
2019-04-01T17:17:18.928Z,101276.03
2019-04-01T17:19:52.837Z,101279.03
2019-04-01T17:22:26.924Z,101278.67
2019-04-01T17:25:00.699Z,101282.65
2019-04-01T17:27:34.385Z,101295.72
2019-04-01T17:30:10.469Z,101280.03
2019-04-01T17:32:45.658Z,101287.03
2019-04-01T17:35:19.570Z,101281.48
2019-04-01T17:37:53.888Z,101280.30
2019-04-01T17:40:29.437Z,101281.34
2019-04-01T17:43:03.653Z,101282.45
2019-04-01T17:45:40.747Z,101280.69
2019-04-01T17:48:16.948Z,101273.41
2019-04-01T17:50:50.770Z,101278.29
2019-04-01T17:53:26.190Z,101277.22
2019-04-01T17:56:00.883Z,101283.88
2019-04-01T17:58:34.728Z,101280.23
2019-04-01T18:01:10.412Z,101283.33
2019-04-01T18:03:44.802Z,101279.34
2019-04-01T18:06:19.981Z,101279.56
2019-04-01T18:08:54.173Z,101276.20
2019-04-01T18:11:28.208Z,101274.72
2019-04-01T18:14:03.005Z,101273.95
2019-04-01T18:16:39.717Z,101278.60
2019-04-01T18:19:13.684Z,101280.59
2019-04-01T18:21:47.570Z,101276.08
2019-04-01T18:24:22.248Z,101277.81
2019-04-01T18:26:57.877Z,101278.56
2019-04-01T18:29:34.311Z,101275.83
2019-04-01T18:32:09.962Z,101279.45
2019-04-01T18:34:44.698Z,101278.84
2019-04-01T18:37:21.076Z,101273.02
2019-04-01T18:39:57.115Z,101278.02
2019-04-01T18:42:32.346Z,101279.01
2019-04-01T18:45:06.983Z,101273.17
2019-04-01T18:47:41.123Z,101266.51
2019-04-01T18:50:15.729Z,101267.34
2019-04-01T18:52:49.580Z,101267.47
2019-04-01T18:55:24.983Z,101268.48
2019-04-01T18:57:59.308Z,101259.18
2019-04-01T19:00:34.272Z,101266.12
2019-04-01T19:03:10.452Z,101255.62
2019-04-01T19:05:47.020Z,101251.34
2019-04-01T19:08:22.807Z,101243.99
2019-04-01T19:11:02.602Z,101262.05
2019-04-01T19:13:33.851Z,101243.59
2019-04-01T19:16:11.764Z,101246.67
2019-04-01T19:18:46.829Z,101247.23
2019-04-01T19:21:21.384Z,101248.64
2019-04-01T19:23:55.376Z,101247.92
2019-04-01T19:26:29.265Z,101251.27
2019-04-01T19:29:04.257Z,101240.58
2019-04-01T19:31:41.094Z,101244.34
2019-04-01T19:34:15.295Z,101248.28
2019-04-01T19:36:51.555Z,101242.54
2019-04-01T19:39:25.563Z,101243.83
2019-04-01T19:41:59.332Z,101245.84
2019-04-01T19:44:33.471Z,101242.33
2019-04-01T19:47:07.803Z,101245.88
2019-04-01T19:49:41.458Z,101248.61
2019-04-01T19:52:15.336Z,101247.17
2019-04-01T19:54:51.817Z,101251.30
2019-04-01T19:57:25.721Z,101247.84
2019-04-01T19:59:59.578Z,101252.27
2019-04-01T20:02:34.740Z,101248.18
2019-04-01T20:05:08.640Z,101249.27
2019-04-01T20:07:44.143Z,101244.69
2019-04-01T20:10:18.668Z,101241.93
2019-04-01T20:12:53.158Z,101230.63
2019-04-01T20:15:27.138Z,101240.31
2019-04-01T20:18:01.399Z,101230.91
2019-04-01T20:20:34.945Z,101231.14
2019-04-01T20:23:08.734Z,101220.72
2019-04-01T20:25:43.170Z,101226.86
2019-04-01T20:28:16.885Z,101218.88
2019-04-01T20:30:50.577Z,101220.58
2019-04-01T20:33:25.548Z,101216.35
2019-04-01T20:35:59.694Z,101210.36
2019-04-01T20:38:33.410Z,101213.02
2019-04-01T20:41:08.078Z,101204.59
2019-04-01T20:43:41.844Z,101200.20
2019-04-01T20:46:15.671Z,101202.14
2019-04-01T20:48:50.922Z,101199.33
2019-04-01T20:51:26.806Z,101191.59
2019-04-01T20:54:02.332Z,101188.27
2019-04-01T20:56:36.120Z,101187.72
2019-04-01T20:59:10.934Z,101178.55
2019-04-01T21:01:44.701Z,101178.00
2019-04-01T21:04:21.977Z,101171.37
2019-04-01T21:06:55.837Z,101171.35
2019-04-01T21:09:29.785Z,101172.42
2019-04-01T21:12:05.091Z,101166.16
2019-04-01T21:14:39.817Z,101161.95
2019-04-01T21:17:13.517Z,101153.44
2019-04-01T21:19:49.684Z,101152.45
2019-04-01T21:22:23.493Z,101152.78
2019-04-01T21:24:58.370Z,101151.80
2019-04-01T21:27:31.950Z,101144.48
2019-04-01T21:30:07.046Z,101142.77
2019-04-01T21:32:41.695Z,101148.22
2019-04-01T21:35:17.285Z,101141.23
2019-04-01T21:37:51.291Z,101136.25
2019-04-01T21:40:25.286Z,101131.38
2019-04-01T21:42:59.379Z,101127.84
2019-04-01T21:45:33.082Z,101121.03
2019-04-01T21:48:10.388Z,101121.42
2019-04-01T21:50:44.035Z,101110.98
2019-04-01T21:53:19.296Z,101114.31
2019-04-01T21:55:53.953Z,101110.02
2019-04-01T21:58:28.871Z,101110.16
2019-04-01T22:01:02.788Z,101106.78
2019-04-01T22:03:37.527Z,101104.30
2019-04-01T22:06:12.880Z,101092.36
2019-04-01T22:08:47.180Z,101093.52
2019-04-01T22:11:22.013Z,101083.02
2019-04-01T22:13:58.998Z,101080.52
2019-04-01T22:16:33.021Z,101088.49
2019-04-01T22:19:06.605Z,101076.20
2019-04-01T22:21:40.379Z,101070.86
2019-04-01T22:24:15.809Z,101065.02
2019-04-01T22:26:49.564Z,101053.85
2019-04-01T22:29:23.272Z,101056.42
2019-04-01T22:31:57.090Z,101051.20
2019-04-01T22:34:31.920Z,101049.77
2019-04-01T22:37:05.616Z,101044.67
2019-04-01T22:39:39.247Z,101039.67
2019-04-01T22:42:12.926Z,101043.16
2019-04-01T22:44:46.732Z,101037.52
2019-04-01T22:47:20.447Z,101034.64
2019-04-01T22:49:55.575Z,101031.70
2019-04-01T22:52:29.295Z,101024.13
2019-04-01T22:55:03.222Z,101016.33
2019-04-01T22:57:36.911Z,101017.69
2019-04-01T23:00:11.105Z,101015.77
2019-04-01T23:02:44.812Z,101015.12
2019-04-01T23:05:20.481Z,101010.55
2019-04-01T23:07:54.181Z,101010.70
2019-04-01T23:10:29.009Z,101010.92
2019-04-01T23:13:02.792Z,101004.52
2019-04-01T23:15:36.865Z,101001.73
2019-04-01T23:18:10.639Z,101000.33
2019-04-01T23:20:45.367Z,100999.27
2019-04-01T23:23:22.857Z,100997.61
2019-04-01T23:25:59.053Z,100990.04
2019-04-01T23:28:33.850Z,100987.20
2019-04-01T23:31:09.602Z,100984.82
2019-04-01T23:33:44.947Z,100976.91
2019-04-01T23:36:20.513Z,100973.59
2019-04-01T23:38:55.226Z,100975.81
2019-04-01T23:41:32.205Z,100973.59
2019-04-01T23:44:07.237Z,100966.28
2019-04-01T23:46:42.318Z,100966.28
2019-04-01T23:49:15.982Z,100967.91
2019-04-01T23:51:49.787Z,100960.03
2019-04-01T23:54:25.491Z,100966.84
2019-04-01T23:56:59.145Z,100957.27
2019-04-01T23:59:32.747Z,100953.22
